Reserve, New Mexico
Current Conditions -  °F | °C
As of 7:35 PM on Thursday 20 Nov 2014 (Local Time) from KJTC Reporting Station
Clear Clear  
Wind Chill: 24°   Ceiling: Unl
Heat Index: 32°   Visibility: 10mi
Dew Point: 16°   Wind: 9mph
Humidity: 51%   Direction: 200°SSW
Pressure: 30.15"   Gusts: NA
Location:  33.71°N, 108.76°W
Report Text: KJTC 210235Z AUTO 20008KT 10SM CLR 00/M09 A3015 RMK AO2
Loading
Personal Weather Stations






























Interactive Weather Map New forecast layout! Learn more

10-Day Weather Forecast

Advertisements
Track Severe Weather on mobile